Terminal Aerodrome Forecast
Issued by NWS Pocatello, ID

Home | Current Version | Previous Version | Text Only | Print | Product List | Glossary On
Versions: 1 2 3 4 5 6 7 8 9 10 11 12 13 14 15 16 17 18 19 20 21
219
FTUS45 KPIH 270520
TAFPIH
TAF
KPIH 270520Z 2706/2806 23020KT P6SM VCSH SCT008 BKN025 OVC080
     FM270800 23020G30KT P6SM VCSH BKN008 OVC015
      TEMPO 2708/2712 SCT008 OVC015
     FM271200 26015KT P6SM SCT008 BKN015 OVC090
     FM271600 25020G30KT P6SM -SHRA BKN025 BKN060 OVC090
     FM272000 27025G35KT P6SM BKN050 BKN090=

USA.gov is the U.S. government's official web portal to all federal, state and local government web resources and services.